createdAt,value
2018-04-02T00:02:11.666Z,24.03
2018-04-02T00:04:40.060Z,23.60
2018-04-02T00:07:07.617Z,25.37
2018-04-02T00:09:35.108Z,23.97
2018-04-02T00:12:02.651Z,24.37
2018-04-02T00:14:30.173Z,21.33
2018-04-02T00:16:57.712Z,24.23
2018-04-02T00:19:25.203Z,25.43
2018-04-02T00:21:52.761Z,22.57
2018-04-02T00:24:21.416Z,20.53
2018-04-02T00:26:49.081Z,21.70
2018-04-02T00:29:17.466Z,25.37
2018-04-02T00:31:45.558Z,22.13
2018-04-02T00:34:13.834Z,21.97
2018-04-02T00:36:42.107Z,23.33
2018-04-02T00:39:09.618Z,24.67
2018-04-02T00:41:37.112Z,23.90
2018-04-02T00:44:04.848Z,23.73
2018-04-02T00:46:32.442Z,23.47
2018-04-02T00:48:59.946Z,35.83
2018-04-02T00:51:27.635Z,23.40
2018-04-02T00:53:55.230Z,25.23
2018-04-02T00:56:22.885Z,24.30
2018-04-02T00:58:50.371Z,26.13
2018-04-02T01:01:17.901Z,26.70
2018-04-02T01:03:45.434Z,24.60
2018-04-02T01:06:12.951Z,26.80
2018-04-02T01:08:40.451Z,30.30
2018-04-02T01:11:08.078Z,25.20
2018-04-02T01:13:35.584Z,24.80
2018-04-02T01:16:03.203Z,25.13
2018-04-02T01:18:30.689Z,24.97
2018-04-02T01:20:58.207Z,23.77
2018-04-02T01:23:25.924Z,28.50
2018-04-02T01:25:53.413Z,25.03
2018-04-02T01:28:21.843Z,26.27
2018-04-02T01:30:49.543Z,26.63
2018-04-02T01:33:17.939Z,27.07
2018-04-02T01:35:45.502Z,27.30
2018-04-02T01:38:12.996Z,30.43
2018-04-02T01:40:40.732Z,29.90
2018-04-02T01:43:08.263Z,31.83
2018-04-02T01:45:36.546Z,31.27
2018-04-02T01:48:05.451Z,31.23
2018-04-02T01:50:32.995Z,29.67
2018-04-02T01:53:01.283Z,43.27
2018-04-02T01:55:28.777Z,30.03
2018-04-02T01:57:56.919Z,38.03
2018-04-02T02:00:24.710Z,29.53
2018-04-02T02:02:52.265Z,28.13
2018-04-02T02:05:19.813Z,28.43
2018-04-02T02:07:47.498Z,27.60
2018-04-02T02:10:16.017Z,33.63
2018-04-02T02:12:43.597Z,30.17
2018-04-02T02:15:11.602Z,28.03
2018-04-02T02:17:39.298Z,29.23
2018-04-02T02:20:06.816Z,31.43
2018-04-02T02:22:34.327Z,30.10
2018-04-02T02:25:02.005Z,31.73
2018-04-02T02:27:29.675Z,31.37
2018-04-02T02:29:57.207Z,34.27
2018-04-02T02:32:24.821Z,34.97
2018-04-02T02:34:52.364Z,36.67
2018-04-02T02:37:19.881Z,35.83
2018-04-02T02:39:47.464Z,34.83
2018-04-02T02:42:15.855Z,36.33
2018-04-02T02:44:43.418Z,32.97
2018-04-02T02:47:10.960Z,37.33
2018-04-02T02:49:38.519Z,38.60
2018-04-02T02:52:07.084Z,38.43
2018-04-02T02:54:34.970Z,40.10
2018-04-02T02:57:02.452Z,39.37
2018-04-02T02:59:30.186Z,39.40
2018-04-02T03:01:58.500Z,42.00
2018-04-02T03:04:25.998Z,44.13
2018-04-02T03:06:54.055Z,42.67
2018-04-02T03:09:22.062Z,46.67
2018-04-02T03:11:49.578Z,39.47
2018-04-02T03:14:17.121Z,38.77
2018-04-02T03:16:44.793Z,40.57
2018-04-02T03:19:12.425Z,37.43
2018-04-02T03:21:40.731Z,38.23
2018-04-02T03:24:08.540Z,39.70
2018-04-02T03:26:36.523Z,40.63
2018-04-02T03:29:04.639Z,38.03
2018-04-02T03:31:32.177Z,45.00
2018-04-02T03:34:00.438Z,42.07
2018-04-02T03:36:27.950Z,36.67
2018-04-02T03:38:55.466Z,47.53
2018-04-02T03:41:23.743Z,37.73
2018-04-02T03:43:51.264Z,39.77
2018-04-02T03:46:18.835Z,39.50
2018-04-02T03:48:46.355Z,38.37
2018-04-02T03:51:13.855Z,42.10
2018-04-02T03:53:41.358Z,40.10
2018-04-02T03:56:08.852Z,45.17
2018-04-02T03:58:36.386Z,46.17
2018-04-02T04:01:03.927Z,41.17
2018-04-02T04:03:31.579Z,41.60
2018-04-02T04:05:59.122Z,40.20
2018-04-02T04:08:26.808Z,47.67
2018-04-02T04:10:54.310Z,46.87
2018-04-02T04:13:22.432Z,48.27
2018-04-02T04:15:49.982Z,42.57
2018-04-02T04:18:17.502Z,45.17
2018-04-02T04:20:45.242Z,48.10
2018-04-02T04:23:12.752Z,43.57
2018-04-02T04:25:40.272Z,44.07
2018-04-02T04:28:07.892Z,42.40
2018-04-02T04:30:35.539Z,40.63
2018-04-02T04:33:04.817Z,42.03
2018-04-02T04:35:32.312Z,39.37
2018-04-02T04:38:01.215Z,45.00
2018-04-02T04:40:28.718Z,42.43
2018-04-02T04:42:56.325Z,41.13
2018-04-02T04:45:24.771Z,39.53
2018-04-02T04:47:52.658Z,44.33
2018-04-02T04:50:20.787Z,49.10
2018-04-02T04:52:48.332Z,42.60
2018-04-02T04:55:15.870Z,42.23
2018-04-02T04:57:44.317Z,41.30
2018-04-02T05:00:12.622Z,38.13
2018-04-02T05:02:41.199Z,37.87
2018-04-02T05:05:09.202Z,37.07
2018-04-02T05:07:36.724Z,33.47
2018-04-02T05:10:04.223Z,35.73
2018-04-02T05:12:31.759Z,37.23
2018-04-02T05:14:59.277Z,32.43
2018-04-02T05:17:27.593Z,32.07
2018-04-02T05:19:55.451Z,32.13
2018-04-02T05:22:22.968Z,34.53
2018-04-02T05:24:50.520Z,34.93
2018-04-02T05:27:18.071Z,31.60
2018-04-02T05:29:45.570Z,31.77
2018-04-02T05:32:13.861Z,29.53
2018-04-02T05:34:41.384Z,33.87
2018-04-02T05:37:08.882Z,31.03
2018-04-02T05:39:37.159Z,33.33
2018-04-02T05:42:04.711Z,32.03
2018-04-02T05:44:32.987Z,26.80
2018-04-02T05:47:00.495Z,30.00
2018-04-02T05:49:28.454Z,31.00
2018-04-02T05:51:56.152Z,29.03
2018-04-02T05:54:24.037Z,28.93
2018-04-02T05:56:51.835Z,30.23
2018-04-02T05:59:19.371Z,28.07
2018-04-02T06:01:47.977Z,29.30
2018-04-02T06:04:15.500Z,31.07
2018-04-02T06:06:43.083Z,26.70
2018-04-02T06:09:10.750Z,29.73
2018-04-02T06:11:39.101Z,25.50
2018-04-02T06:14:06.688Z,27.93
2018-04-02T06:16:34.968Z,26.40
2018-04-02T06:19:03.241Z,30.60
2018-04-02T06:21:32.025Z,27.67
2018-04-02T06:24:00.405Z,26.47
2018-04-02T06:26:28.919Z,27.73
2018-04-02T06:28:56.403Z,42.20
2018-04-02T06:31:23.979Z,27.17
2018-04-02T06:33:52.243Z,24.50
2018-04-02T06:36:19.772Z,23.77
2018-04-02T06:38:47.506Z,26.87
2018-04-02T06:41:15.158Z,26.00
2018-04-02T06:43:43.022Z,24.63
2018-04-02T06:46:11.458Z,25.13
2018-04-02T06:48:39.062Z,22.30
2018-04-02T06:51:08.434Z,23.13
2018-04-02T06:53:37.357Z,22.20
2018-04-02T06:56:04.892Z,21.33
2018-04-02T06:58:33.204Z,23.47
2018-04-02T07:01:01.471Z,23.23
2018-04-02T07:03:29.724Z,21.90
2018-04-02T07:05:57.250Z,25.77
2018-04-02T07:08:24.838Z,29.80
2018-04-02T07:10:52.477Z,20.97
2018-04-02T07:13:19.966Z,20.33
2018-04-02T07:15:48.450Z,21.27
2018-04-02T07:18:16.742Z,23.07
2018-04-02T07:20:44.808Z,20.43
2018-04-02T07:23:12.826Z,17.70
2018-04-02T07:25:40.340Z,23.07
2018-04-02T07:28:08.005Z,21.57
2018-04-02T07:30:35.773Z,19.30
2018-04-02T07:33:04.255Z,19.13
2018-04-02T07:35:31.763Z,22.53
2018-04-02T07:37:59.427Z,18.13
2018-04-02T07:40:26.944Z,17.23
2018-04-02T07:42:54.606Z,19.30
2018-04-02T07:45:22.915Z,23.03
2018-04-02T07:47:50.424Z,19.00
2018-04-02T07:50:18.687Z,15.67
2018-04-02T07:52:46.191Z,19.93
2018-04-02T07:55:13.696Z,15.80
2018-04-02T07:57:41.218Z,16.83
2018-04-02T08:00:08.816Z,17.10
2018-04-02T08:02:36.591Z,17.77
2018-04-02T08:05:04.887Z,18.03
2018-04-02T08:07:32.374Z,17.37
2018-04-02T08:10:00.540Z,21.53
2018-04-02T08:12:28.076Z,19.57
2018-04-02T08:14:55.663Z,17.00
2018-04-02T08:17:23.247Z,20.27
2018-04-02T08:19:50.783Z,15.77
2018-04-02T08:22:18.329Z,15.13
2018-04-02T08:24:46.045Z,16.87
2018-04-02T08:27:13.547Z,19.80
2018-04-02T08:29:41.049Z,14.57
2018-04-02T08:32:08.923Z,14.10
2018-04-02T08:34:36.469Z,18.13
2018-04-02T08:37:04.132Z,25.60
2018-04-02T08:39:31.626Z,16.37
2018-04-02T08:41:59.155Z,16.60
2018-04-02T08:44:26.956Z,13.47
2018-04-02T08:46:54.530Z,16.57
2018-04-02T08:49:22.087Z,17.60
2018-04-02T08:51:49.623Z,17.60
2018-04-02T08:54:18.767Z,16.37
2018-04-02T08:56:47.523Z,15.30
2018-04-02T08:59:15.107Z,15.43
2018-04-02T09:01:42.714Z,16.77
2018-04-02T09:04:10.295Z,15.60
2018-04-02T09:06:37.809Z,15.67
2018-04-02T09:09:05.331Z,13.73
2018-04-02T09:11:33.018Z,16.90
2018-04-02T09:14:00.712Z,16.20
2018-04-02T09:16:28.437Z,15.90
2018-04-02T09:18:55.992Z,14.80
2018-04-02T09:21:23.629Z,13.57
2018-04-02T09:23:51.127Z,15.43
2018-04-02T09:26:18.683Z,16.37
2018-04-02T09:28:46.180Z,14.47
2018-04-02T09:31:13.727Z,16.43
2018-04-02T09:33:41.275Z,17.63
2018-04-02T09:36:08.826Z,14.53
2018-04-02T09:38:37.154Z,23.07
2018-04-02T09:41:04.725Z,19.47
2018-04-02T09:43:32.481Z,13.67
2018-04-02T09:46:00.064Z,16.83
2018-04-02T09:48:28.525Z,12.37
2018-04-02T09:50:56.492Z,13.40
2018-04-02T09:53:24.043Z,14.23
2018-04-02T09:55:51.577Z,12.60
2018-04-02T09:58:19.256Z,16.30
2018-04-02T10:00:46.861Z,18.17
2018-04-02T10:03:14.415Z,11.93
2018-04-02T10:05:41.946Z,11.53
2018-04-02T10:08:09.475Z,9.70
2018-04-02T10:10:37.176Z,14.80
2018-04-02T10:13:04.746Z,13.20
2018-04-02T10:15:32.897Z,12.33
2018-04-02T10:18:02.351Z,12.33
2018-04-02T10:20:30.046Z,14.10
2018-04-02T10:22:57.543Z,13.80
2018-04-02T10:25:26.587Z,11.10
2018-04-02T10:27:54.218Z,9.43
2018-04-02T10:30:22.191Z,14.23
2018-04-02T10:32:51.503Z,13.57
2018-04-02T10:35:21.136Z,10.07
2018-04-02T10:37:49.692Z,10.10
2018-04-02T10:40:17.287Z,14.27
2018-04-02T10:42:45.147Z,12.10
2018-04-02T10:45:13.094Z,12.87
2018-04-02T10:47:40.818Z,11.20
2018-04-02T10:50:08.428Z,10.43
2018-04-02T10:52:36.002Z,11.60
2018-04-02T10:55:03.531Z,17.43
2018-04-02T10:57:31.047Z,9.73
2018-04-02T10:59:58.650Z,9.53
2018-04-02T11:02:26.927Z,10.53
2018-04-02T11:04:54.483Z,10.23
2018-04-02T11:07:23.117Z,13.87
2018-04-02T11:09:51.480Z,11.50
2018-04-02T11:12:19.286Z,10.23
2018-04-02T11:14:46.890Z,12.00
2018-04-02T11:17:14.436Z,9.53
2018-04-02T11:19:42.062Z,9.93
2018-04-02T11:22:09.687Z,10.67
2018-04-02T11:24:37.240Z,10.63
2018-04-02T11:27:04.811Z,9.97
2018-04-02T11:29:32.508Z,11.77
2018-04-02T11:32:00.121Z,11.90
2018-04-02T11:34:28.503Z,11.13
2018-04-02T11:36:56.159Z,12.27
2018-04-02T11:39:23.767Z,10.93
2018-04-02T11:41:51.434Z,9.83
2018-04-02T11:44:18.967Z,9.70
2018-04-02T11:46:46.546Z,10.67
2018-04-02T11:49:14.143Z,10.17
2018-04-02T11:51:42.591Z,10.90
2018-04-02T11:54:10.249Z,12.73
2018-04-02T11:56:37.849Z,10.93
2018-04-02T11:59:06.367Z,9.33
2018-04-02T12:01:33.869Z,9.77
2018-04-02T12:04:01.569Z,9.07
2018-04-02T12:06:29.250Z,10.17
2018-04-02T12:08:56.898Z,12.87
2018-04-02T12:11:25.924Z,12.47
2018-04-02T12:13:54.140Z,10.73
2018-04-02T12:16:21.818Z,11.03
2018-04-02T12:18:50.142Z,12.03
2018-04-02T12:21:17.708Z,11.17
2018-04-02T12:23:45.365Z,12.57
2018-04-02T12:26:12.995Z,11.87
2018-04-02T12:28:41.492Z,11.63
2018-04-02T12:31:10.064Z,10.37
2018-04-02T12:33:37.694Z,8.73
2018-04-02T12:36:06.114Z,10.23
2018-04-02T12:38:33.699Z,10.90
2018-04-02T12:41:02.645Z,10.47
2018-04-02T12:43:30.494Z,11.90
2018-04-02T12:45:59.331Z,9.87
2018-04-02T12:48:26.944Z,9.67
2018-04-02T12:50:55.162Z,10.30
2018-04-02T12:53:22.798Z,8.90
2018-04-02T12:55:50.478Z,11.47
2018-04-02T12:58:18.028Z,9.73
2018-04-02T13:00:46.073Z,9.57
2018-04-02T13:03:14.292Z,8.97
2018-04-02T13:05:41.832Z,11.57
2018-04-02T13:08:09.319Z,9.60
2018-04-02T13:10:37.095Z,11.63
2018-04-02T13:13:04.624Z,9.43
2018-04-02T13:15:32.150Z,15.33
2018-04-02T13:18:01.147Z,13.40
2018-04-02T13:20:28.786Z,13.43
2018-04-02T13:22:56.923Z,9.83
2018-04-02T13:25:25.258Z,9.80
2018-04-02T13:27:53.556Z,15.43
2018-04-02T13:30:21.234Z,11.67
2018-04-02T13:32:49.010Z,11.10
2018-04-02T13:35:16.527Z,14.30
2018-04-02T13:37:45.143Z,11.40
2018-04-02T13:40:12.744Z,8.33
2018-04-02T13:42:40.413Z,11.17
2018-04-02T13:45:07.953Z,11.40
2018-04-02T13:47:35.519Z,10.07
2018-04-02T13:50:03.993Z,12.60
2018-04-02T13:52:31.712Z,11.33
2018-04-02T13:55:00.290Z,10.90
2018-04-02T13:57:28.638Z,11.10
2018-04-02T13:59:57.027Z,16.37
2018-04-02T14:02:24.809Z,16.90
2018-04-02T14:04:52.563Z,11.13
2018-04-02T14:07:20.059Z,12.07
2018-04-02T14:09:47.570Z,10.27
2018-04-02T14:12:16.380Z,12.80
2018-04-02T14:14:44.859Z,12.70
2018-04-02T14:17:13.355Z,12.23
2018-04-02T14:19:40.868Z,12.60
2018-04-02T14:22:08.430Z,11.43
2018-04-02T14:24:36.013Z,10.97
2018-04-02T14:27:03.528Z,19.70
2018-04-02T14:29:31.063Z,12.53
2018-04-02T14:31:58.592Z,14.60
2018-04-02T14:34:26.942Z,12.30
2018-04-02T14:36:54.776Z,18.50
2018-04-02T14:39:22.950Z,12.37
2018-04-02T14:41:50.482Z,13.83
2018-04-02T14:44:18.290Z,13.03
2018-04-02T14:46:45.818Z,13.10
2018-04-02T14:49:13.346Z,14.60
2018-04-02T14:51:41.383Z,16.53
2018-04-02T14:54:09.129Z,14.23
2018-04-02T14:56:36.742Z,18.57
2018-04-02T14:59:05.039Z,18.10
2018-04-02T15:01:33.391Z,21.37
2018-04-02T15:04:02.406Z,23.37
2018-04-02T15:06:30.109Z,20.53
2018-04-02T15:08:57.620Z,23.03
2018-04-02T15:11:25.127Z,19.27
2018-04-02T15:13:52.720Z,19.30
2018-04-02T15:16:21.658Z,16.00
2018-04-02T15:18:49.488Z,19.70
2018-04-02T15:21:17.034Z,18.20
2018-04-02T15:23:44.849Z,19.27
2018-04-02T15:26:12.477Z,20.57
2018-04-02T15:28:41.130Z,18.87
2018-04-02T15:31:08.750Z,18.47
2018-04-02T15:33:37.052Z,20.43
2018-04-02T15:36:04.596Z,26.80
2018-04-02T15:38:32.176Z,21.77
2018-04-02T15:40:59.844Z,27.77
2018-04-02T15:43:27.439Z,22.93
2018-04-02T15:45:54.996Z,23.90
2018-04-02T15:48:22.611Z,19.83
2018-04-02T15:50:50.196Z,27.77
2018-04-02T15:53:17.711Z,25.23
2018-04-02T15:55:45.252Z,21.83
2018-04-02T15:58:13.614Z,23.57
2018-04-02T16:00:41.351Z,19.57
2018-04-02T16:03:09.697Z,22.07
2018-04-02T16:05:37.285Z,25.70
2018-04-02T16:08:04.887Z,23.60
2018-04-02T16:10:32.713Z,25.90
2018-04-02T16:13:00.249Z,26.23
2018-04-02T16:15:27.741Z,21.47
2018-04-02T16:17:55.306Z,25.07
2018-04-02T16:20:23.141Z,24.03
2018-04-02T16:22:50.684Z,26.30
2018-04-02T16:25:19.056Z,23.30
2018-04-02T16:27:46.694Z,22.73
2018-04-02T16:30:14.403Z,20.53
2018-04-02T16:32:41.962Z,20.40
2018-04-02T16:35:09.472Z,22.43
2018-04-02T16:37:36.981Z,27.07
2018-04-02T16:40:04.616Z,21.80
2018-04-02T16:42:32.312Z,20.60
2018-04-02T16:44:59.848Z,31.13
2018-04-02T16:47:28.176Z,20.87
2018-04-02T16:49:55.686Z,19.83
2018-04-02T16:52:23.239Z,21.30
2018-04-02T16:54:51.851Z,22.30
2018-04-02T16:57:19.362Z,21.17
2018-04-02T16:59:46.905Z,22.57
2018-04-02T17:02:14.523Z,24.13
2018-04-02T17:04:42.062Z,23.37
2018-04-02T17:07:10.319Z,23.03
2018-04-02T17:09:38.220Z,22.07
2018-04-02T17:12:06.683Z,22.07
2018-04-02T17:14:34.237Z,24.80
2018-04-02T17:17:01.955Z,22.23
2018-04-02T17:19:29.478Z,22.30
2018-04-02T17:21:58.329Z,21.93
2018-04-02T17:24:25.911Z,23.93
2018-04-02T17:26:54.569Z,23.77
2018-04-02T17:29:22.259Z,22.27
2018-04-02T17:31:50.271Z,26.33
2018-04-02T17:34:17.799Z,24.90
2018-04-02T17:36:46.095Z,22.60
2018-04-02T17:39:13.613Z,22.17
2018-04-02T17:41:41.152Z,31.00
2018-04-02T17:44:09.569Z,25.37
2018-04-02T17:46:37.103Z,25.03
2018-04-02T17:49:05.379Z,23.50
2018-04-02T17:51:32.999Z,25.40
2018-04-02T17:54:00.891Z,22.83
2018-04-02T17:56:28.466Z,23.30
2018-04-02T17:58:56.082Z,25.07
2018-04-02T18:01:23.852Z,24.10
2018-04-02T18:03:51.453Z,24.10
2018-04-02T18:06:20.036Z,27.13
2018-04-02T18:08:47.864Z,26.10
2018-04-02T18:11:15.424Z,27.63
2018-04-02T18:13:42.941Z,27.03
2018-04-02T18:16:10.484Z,25.57
2018-04-02T18:18:37.994Z,27.60
2018-04-02T18:21:05.690Z,26.50
2018-04-02T18:23:33.228Z,24.57
2018-04-02T18:26:00.757Z,24.20
2018-04-02T18:28:28.295Z,25.70
2018-04-02T18:30:56.509Z,25.00
2018-04-02T18:33:24.690Z,29.23
2018-04-02T18:35:52.546Z,26.33
2018-04-02T18:38:20.442Z,26.60
2018-04-02T18:40:48.165Z,26.53
2018-04-02T18:43:15.760Z,25.50
2018-04-02T18:45:43.345Z,25.97
2018-04-02T18:48:11.094Z,25.30
2018-04-02T18:50:38.652Z,27.73
2018-04-02T18:53:06.152Z,28.43
2018-04-02T18:55:33.832Z,29.00
2018-04-02T18:58:02.846Z,28.63
2018-04-02T19:00:30.458Z,27.60
2018-04-02T19:02:58.024Z,24.90
2018-04-02T19:05:25.659Z,28.03
2018-04-02T19:07:53.218Z,28.33
2018-04-02T19:10:21.481Z,26.40
2018-04-02T19:12:49.454Z,27.17
2018-04-02T19:15:17.169Z,28.20
2018-04-02T19:17:45.864Z,26.20
2018-04-02T19:20:14.281Z,26.23
2018-04-02T19:22:41.808Z,27.90
2018-04-02T19:25:10.107Z,27.37
2018-04-02T19:27:37.656Z,26.63
2018-04-02T19:30:05.174Z,25.63
2018-04-02T19:32:33.558Z,28.20
2018-04-02T19:35:01.919Z,28.00
2018-04-02T19:37:29.863Z,27.57
2018-04-02T19:39:58.407Z,30.67
2018-04-02T19:42:25.939Z,27.37
2018-04-02T19:44:53.467Z,29.10
2018-04-02T19:47:21.024Z,25.13
2018-04-02T19:49:49.742Z,29.17
2018-04-02T19:52:18.485Z,28.13
2018-04-02T19:54:46.391Z,29.33
2018-04-02T19:57:13.954Z,28.70
2018-04-02T19:59:41.567Z,29.53
2018-04-02T20:02:09.106Z,26.53
2018-04-02T20:04:36.918Z,29.23
2018-04-02T20:07:04.499Z,28.33
2018-04-02T20:09:32.065Z,28.87
2018-04-02T20:11:59.597Z,29.70
2018-04-02T20:14:27.577Z,29.53
2018-04-02T20:16:55.214Z,28.93
2018-04-02T20:19:22.781Z,30.20
2018-04-02T20:21:50.565Z,28.93
2018-04-02T20:24:18.259Z,28.17
2018-04-02T20:26:46.617Z,27.57
2018-04-02T20:29:16.000Z,26.97
2018-04-02T20:31:43.665Z,30.23
2018-04-02T20:34:11.416Z,30.07
2018-04-02T20:36:39.999Z,28.97
2018-04-02T20:39:07.695Z,27.57
2018-04-02T20:41:35.603Z,28.23
2018-04-02T20:44:03.145Z,26.47
2018-04-02T20:46:32.222Z,29.60
2018-04-02T20:48:59.824Z,27.23
2018-04-02T20:51:27.451Z,29.90
2018-04-02T20:53:55.109Z,25.27
2018-04-02T20:56:22.656Z,27.63
2018-04-02T20:58:50.209Z,27.60
2018-04-02T21:01:17.809Z,26.33
2018-04-02T21:03:46.096Z,28.77
2018-04-02T21:06:14.502Z,26.57
2018-04-02T21:08:42.069Z,25.70
2018-04-02T21:11:10.343Z,26.47
2018-04-02T21:13:37.966Z,26.50
2018-04-02T21:16:06.325Z,25.47
2018-04-02T21:18:35.932Z,25.60
2018-04-02T21:21:03.972Z,26.10
2018-04-02T21:23:31.516Z,24.67
2018-04-02T21:25:59.852Z,23.80
2018-04-02T21:28:27.440Z,26.70
2018-04-02T21:30:55.815Z,24.77
2018-04-02T21:33:23.426Z,24.90
2018-04-02T21:35:52.390Z,25.90
2018-04-02T21:38:20.052Z,24.03
2018-04-02T21:40:48.398Z,25.17
2018-04-02T21:43:15.909Z,25.93
2018-04-02T21:45:43.681Z,23.50
2018-04-02T21:48:11.279Z,26.20
2018-04-02T21:50:38.831Z,25.37
2018-04-02T21:53:06.401Z,25.30
2018-04-02T21:55:35.372Z,25.47
2018-04-02T21:58:02.919Z,25.57
2018-04-02T22:00:30.580Z,25.37
2018-04-02T22:02:59.213Z,24.10
2018-04-02T22:05:28.388Z,23.00
2018-04-02T22:08:13.469Z,23.50
2018-04-02T22:10:41.909Z,24.53
2018-04-02T22:13:11.798Z,24.33
2018-04-02T22:15:40.339Z,24.33
2018-04-02T22:18:08.838Z,24.60
2018-04-02T22:20:36.508Z,22.97
2018-04-02T22:23:04.783Z,24.43
2018-04-02T22:25:32.363Z,23.97
2018-04-02T22:27:59.899Z,23.30
2018-04-02T22:30:28.217Z,23.50
2018-04-02T22:32:55.868Z,24.10
2018-04-02T22:35:23.561Z,25.27
2018-04-02T22:37:51.304Z,24.80
2018-04-02T22:40:18.830Z,25.43
2018-04-02T22:42:47.948Z,25.43
2018-04-02T22:45:15.512Z,24.00
2018-04-02T22:47:43.064Z,24.10
2018-04-02T22:50:10.625Z,24.93
2018-04-02T22:52:38.217Z,24.37
2018-04-02T22:55:05.752Z,23.20
2018-04-02T22:57:33.518Z,22.23
2018-04-02T23:00:01.050Z,23.60
2018-04-02T23:02:29.484Z,24.47
2018-04-02T23:04:57.816Z,24.47
2018-04-02T23:07:25.481Z,23.17
2018-04-02T23:09:53.018Z,22.37
2018-04-02T23:12:20.692Z,24.03
2018-04-02T23:14:49.093Z,20.73
2018-04-02T23:17:16.627Z,21.73
2018-04-02T23:19:44.937Z,21.37
2018-04-02T23:22:18.536Z,22.53
2018-04-02T23:24:46.096Z,19.63
2018-04-02T23:27:14.068Z,20.30
2018-04-02T23:29:41.634Z,24.63
2018-04-02T23:32:09.165Z,22.43
2018-04-02T23:34:38.103Z,21.37
2018-04-02T23:37:05.655Z,23.53
2018-04-02T23:39:33.283Z,20.80
2018-04-02T23:42:00.786Z,23.47
2018-04-02T23:44:28.499Z,22.97
2018-04-02T23:46:56.347Z,20.00
2018-04-02T23:49:23.883Z,21.43
2018-04-02T23:51:51.533Z,21.97
2018-04-02T23:54:19.073Z,20.40
2018-04-02T23:56:46.599Z,20.93
2018-04-02T23:59:14.107Z,23.27
